RYR5YD LIPE-EGPH
Flight info
| Callsign | RYR5YD |
|---|---|
| Flight time | N/A |
| Altitude | 38000 |
| Route | LUMAV L12 VIC DCT SUMIR DCT SOTOV DCT IRBIR DCT ASPAT DCT MASEK DCT MAPOX DCT AMGOD DCT GODOS DCT AGPED |
| Aircraft | B738/M-SDE3FGIJ1LRWY/SB1 |
Departure
| Time | N/A |
|---|---|
| Airport | Bologna Guglielmo Marconi Airport (LIPE) |
Arrival
| Time | 2026-04-25 09:54 |
|---|---|
| Airport | Edinburgh Airport (EGPH) |
| Time | Latitude | Longitude | Altitude | Speed | Heading |
|---|---|---|---|---|---|
| 2026-04-25 08:48 | 52.34364 | 5.56431 | 38210 ft | 402 kts | 300° |
| 2026-04-25 08:48 | 52.35735 | 5.52497 | 38214 ft | 402 kts | 300° |
| 2026-04-25 08:49 | 52.38503 | 5.44537 | 38209 ft | 402 kts | 300° |
| 2026-04-25 08:49 | 52.41264 | 5.36573 | 38216 ft | 402 kts | 300° |
| 2026-04-25 08:50 | 52.44015 | 5.28611 | 38213 ft | 401 kts | 300° |
| 2026-04-25 08:50 | 52.46745 | 5.20685 | 38214 ft | 401 kts | 300° |
| 2026-04-25 08:51 | 52.49487 | 5.12700 | 38209 ft | 401 kts | 300° |
| 2026-04-25 08:51 | 52.52217 | 5.04721 | 38220 ft | 400 kts | 300° |
| 2026-04-25 08:52 | 52.54940 | 4.96739 | 38216 ft | 400 kts | 300° |
| 2026-04-25 08:52 | 52.57656 | 4.88751 | 38208 ft | 400 kts | 300° |
| 2026-04-25 08:53 | 52.60368 | 4.80750 | 38210 ft | 400 kts | 299° |
| 2026-04-25 08:53 | 52.63057 | 4.72791 | 38224 ft | 400 kts | 299° |
| 2026-04-25 08:54 | 52.65759 | 4.64769 | 38225 ft | 400 kts | 299° |
| 2026-04-25 08:54 | 52.68451 | 4.56748 | 38212 ft | 400 kts | 299° |
| 2026-04-25 08:55 | 52.70687 | 4.50068 | 38218 ft | 400 kts | 299° |
| 2026-04-25 08:55 | 52.73373 | 4.42019 | 38222 ft | 400 kts | 299° |
| 2026-04-25 08:56 | 52.76482 | 4.32666 | 38221 ft | 400 kts | 299° |
| 2026-04-25 08:56 | 52.78707 | 4.25955 | 38204 ft | 400 kts | 299° |
| 2026-04-25 08:57 | 52.81376 | 4.17876 | 38206 ft | 400 kts | 298° |
| 2026-04-25 08:57 | 52.84037 | 4.09797 | 38219 ft | 400 kts | 298° |
| 2026-04-25 08:58 | 52.86693 | 4.01706 | 38220 ft | 400 kts | 298° |
| 2026-04-25 08:58 | 52.89346 | 3.93596 | 38214 ft | 400 kts | 298° |
| 2026-04-25 08:59 | 52.91974 | 3.85536 | 38217 ft | 400 kts | 298° |
| 2026-04-25 08:59 | 52.94618 | 3.77406 | 38220 ft | 400 kts | 298° |
| 2026-04-25 09:00 | 52.97732 | 3.69787 | 38232 ft | 400 kts | 313° |
| 2026-04-25 09:00 | 53.02110 | 3.64048 | 38226 ft | 404 kts | 328° |
| 2026-04-25 09:01 | 53.07020 | 3.59587 | 38231 ft | 405 kts | 329° |
| 2026-04-25 09:01 | 53.11966 | 3.55072 | 38219 ft | 405 kts | 328° |
| 2026-04-25 09:02 | 53.16873 | 3.50513 | 38223 ft | 405 kts | 328° |
| 2026-04-25 09:02 | 53.21793 | 3.45887 | 38213 ft | 405 kts | 325° |
| 2026-04-25 09:03 | 53.26016 | 3.39788 | 38197 ft | 401 kts | 310° |
| 2026-04-25 09:03 | 53.29186 | 3.32145 | 38207 ft | 400 kts | 302° |
| 2026-04-25 09:04 | 53.32154 | 3.24316 | 38209 ft | 400 kts | 302° |
| 2026-04-25 09:04 | 53.35147 | 3.16437 | 38198 ft | 401 kts | 302° |
| 2026-04-25 09:05 | 53.38151 | 3.08558 | 38193 ft | 401 kts | 302° |
| 2026-04-25 09:05 | 53.41160 | 3.00663 | 38196 ft | 402 kts | 302° |
| 2026-04-25 09:06 | 53.44170 | 2.92748 | 38202 ft | 402 kts | 302° |
| 2026-04-25 09:06 | 53.47176 | 2.84820 | 38199 ft | 402 kts | 302° |
| 2026-04-25 09:07 | 53.50157 | 2.76931 | 38189 ft | 403 kts | 302° |
| 2026-04-25 09:07 | 53.53158 | 2.68965 | 38195 ft | 403 kts | 302° |
| 2026-04-25 09:08 | 53.56156 | 2.60980 | 38197 ft | 403 kts | 302° |
| 2026-04-25 09:08 | 53.59148 | 2.52987 | 38204 ft | 404 kts | 302° |
| 2026-04-25 09:09 | 53.62136 | 2.44979 | 38206 ft | 404 kts | 301° |
| 2026-04-25 09:09 | 53.65112 | 2.36977 | 38195 ft | 404 kts | 301° |
| 2026-04-25 09:10 | 53.68093 | 2.28936 | 38192 ft | 404 kts | 301° |
| 2026-04-25 09:10 | 53.71047 | 2.20940 | 38199 ft | 404 kts | 301° |
| 2026-04-25 09:11 | 53.75501 | 2.08838 | 38195 ft | 404 kts | 301° |
| 2026-04-25 09:11 | 53.78466 | 2.00749 | 38197 ft | 404 kts | 301° |
| 2026-04-25 09:12 | 53.81425 | 1.92650 | 38204 ft | 404 kts | 301° |
| 2026-04-25 09:12 | 53.84380 | 1.84538 | 38204 ft | 405 kts | 301° |
| 2026-04-25 09:13 | 53.87313 | 1.76458 | 38200 ft | 405 kts | 301° |
| 2026-04-25 09:13 | 53.90261 | 1.68308 | 38202 ft | 405 kts | 301° |
| 2026-04-25 09:14 | 53.93206 | 1.60142 | 38194 ft | 406 kts | 301° |
| 2026-04-25 09:14 | 53.96135 | 1.51994 | 38197 ft | 406 kts | 301° |
| 2026-04-25 09:15 | 53.99076 | 1.43782 | 38204 ft | 407 kts | 301° |
| 2026-04-25 09:15 | 54.02014 | 1.35556 | 38205 ft | 407 kts | 301° |
| 2026-04-25 09:16 | 54.04951 | 1.27301 | 38201 ft | 408 kts | 301° |
| 2026-04-25 09:16 | 54.07888 | 1.19022 | 38200 ft | 408 kts | 300° |
| 2026-04-25 09:17 | 54.12286 | 1.06569 | 38206 ft | 409 kts | 300° |
| 2026-04-25 09:18 | 54.15216 | 0.98239 | 38206 ft | 410 kts | 300° |
| 2026-04-25 09:18 | 54.18127 | 0.89934 | 38204 ft | 410 kts | 300° |
| 2026-04-25 09:19 | 54.21053 | 0.81558 | 38209 ft | 411 kts | 300° |
| 2026-04-25 09:19 | 54.23979 | 0.73153 | 38211 ft | 411 kts | 300° |
| 2026-04-25 09:20 | 54.26899 | 0.64737 | 38211 ft | 412 kts | 300° |
| 2026-04-25 09:20 | 54.29817 | 0.56300 | 38211 ft | 412 kts | 300° |
| 2026-04-25 09:21 | 54.32718 | 0.47881 | 38205 ft | 412 kts | 300° |
| 2026-04-25 09:21 | 54.35631 | 0.39399 | 38213 ft | 413 kts | 300° |
| 2026-04-25 09:22 | 54.38542 | 0.30891 | 38213 ft | 413 kts | 300° |
| 2026-04-25 09:22 | 54.41445 | 0.22379 | 38217 ft | 413 kts | 300° |
| 2026-04-25 09:23 | 54.44344 | 0.13850 | 38219 ft | 414 kts | 300° |
| 2026-04-25 09:23 | 54.47241 | 0.05295 | 38217 ft | 414 kts | 299° |
| 2026-04-25 09:24 | 54.50136 | -0.03284 | 38226 ft | 414 kts | 299° |
| 2026-04-25 09:24 | 54.53030 | -0.11889 | 38218 ft | 415 kts | 299° |
| 2026-04-25 09:25 | 54.55898 | -0.20447 | 38222 ft | 415 kts | 299° |
| 2026-04-25 09:25 | 54.58785 | -0.29092 | 38219 ft | 416 kts | 299° |
| 2026-04-25 09:26 | 54.61665 | -0.37749 | 38219 ft | 416 kts | 299° |
| 2026-04-25 09:26 | 54.64544 | -0.46431 | 38228 ft | 417 kts | 299° |
| 2026-04-25 09:27 | 54.67422 | -0.55141 | 38231 ft | 417 kts | 299° |
| 2026-04-25 09:27 | 54.70296 | -0.63873 | 38234 ft | 418 kts | 299° |
| 2026-04-25 09:28 | 54.73154 | -0.72588 | 38230 ft | 418 kts | 298° |
| 2026-04-25 09:28 | 54.76021 | -0.81361 | 38226 ft | 419 kts | 298° |
| 2026-04-25 09:28 | 54.77463 | -0.85783 | 37952 ft | 424 kts | 298° |
| 2026-04-25 09:29 | 54.78913 | -0.90242 | 37692 ft | 425 kts | 298° |
| 2026-04-25 09:29 | 54.80361 | -0.94699 | 37415 ft | 422 kts | 298° |
| 2026-04-25 09:29 | 54.81794 | -0.99119 | 37141 ft | 418 kts | 298° |
| 2026-04-25 09:29 | 54.83217 | -1.03517 | 36887 ft | 419 kts | 298° |
| 2026-04-25 09:30 | 54.84642 | -1.07930 | 36630 ft | 420 kts | 298° |
| 2026-04-25 09:30 | 54.86070 | -1.12359 | 36373 ft | 420 kts | 298° |
| 2026-04-25 09:30 | 54.87497 | -1.16795 | 36120 ft | 421 kts | 298° |
| 2026-04-25 09:30 | 54.88919 | -1.21221 | 35520 ft | 419 kts | 298° |
| 2026-04-25 09:31 | 54.90327 | -1.25614 | 34967 ft | 415 kts | 298° |
| 2026-04-25 09:31 | 54.91256 | -1.28516 | 34561 ft | 415 kts | 298° |
| 2026-04-25 09:31 | 54.93127 | -1.34371 | 33656 ft | 413 kts | 298° |
| 2026-04-25 09:31 | 54.94503 | -1.38686 | 32998 ft | 412 kts | 298° |
| 2026-04-25 09:32 | 54.95888 | -1.43037 | 32345 ft | 410 kts | 298° |
| 2026-04-25 09:32 | 54.97269 | -1.47384 | 31688 ft | 409 kts | 298° |
| 2026-04-25 09:32 | 54.98635 | -1.51692 | 31233 ft | 403 kts | 297° |
| 2026-04-25 09:32 | 54.99983 | -1.55949 | 30760 ft | 398 kts | 297° |
| 2026-04-25 09:33 | 55.01309 | -1.60144 | 30295 ft | 393 kts | 297° |
| 2026-04-25 09:33 | 55.02614 | -1.64284 | 29778 ft | 387 kts | 297° |
| 2026-04-25 09:33 | 55.03899 | -1.68364 | 29322 ft | 390 kts | 297° |
| 2026-04-25 09:33 | 55.05223 | -1.72580 | 28833 ft | 404 kts | 297° |
| 2026-04-25 09:34 | 55.06580 | -1.76910 | 28308 ft | 404 kts | 298° |
| 2026-04-25 09:34 | 55.07917 | -1.81175 | 27823 ft | 397 kts | 298° |
| 2026-04-25 09:34 | 55.09233 | -1.85378 | 27318 ft | 391 kts | 298° |
| 2026-04-25 09:34 | 55.10526 | -1.89520 | 26842 ft | 385 kts | 298° |
| 2026-04-25 09:35 | 55.11784 | -1.93554 | 26364 ft | 380 kts | 298° |
| 2026-04-25 09:35 | 55.13057 | -1.97586 | 25861 ft | 377 kts | 299° |
| 2026-04-25 09:35 | 55.14361 | -2.01566 | 25360 ft | 378 kts | 300° |
| 2026-04-25 09:35 | 55.15694 | -2.05583 | 24857 ft | 386 kts | 300° |
| 2026-04-25 09:36 | 55.17049 | -2.09666 | 24325 ft | 390 kts | 300° |
| 2026-04-25 09:36 | 55.18410 | -2.13776 | 23750 ft | 389 kts | 300° |
| 2026-04-25 09:36 | 55.19756 | -2.17858 | 23145 ft | 386 kts | 300° |
| 2026-04-25 09:36 | 55.21087 | -2.21912 | 22586 ft | 382 kts | 300° |
| 2026-04-25 09:37 | 55.22402 | -2.25927 | 22070 ft | 377 kts | 299° |
| 2026-04-25 09:37 | 55.23700 | -2.29899 | 21544 ft | 374 kts | 299° |
| 2026-04-25 09:37 | 55.24971 | -2.33799 | 21041 ft | 371 kts | 299° |
| 2026-04-25 09:37 | 55.26245 | -2.37715 | 20545 ft | 368 kts | 299° |
| 2026-04-25 09:38 | 55.27508 | -2.41603 | 20055 ft | 366 kts | 299° |
| 2026-04-25 09:38 | 55.28763 | -2.45474 | 19559 ft | 363 kts | 299° |
| 2026-04-25 09:38 | 55.30010 | -2.49328 | 19087 ft | 362 kts | 299° |
| 2026-04-25 09:38 | 55.31249 | -2.53162 | 18596 ft | 360 kts | 299° |
| 2026-04-25 09:39 | 55.32479 | -2.56996 | 18062 ft | 359 kts | 299° |
| 2026-04-25 09:39 | 55.33696 | -2.60817 | 17515 ft | 357 kts | 299° |
| 2026-04-25 09:39 | 55.34881 | -2.64556 | 17003 ft | 353 kts | 298° |
| 2026-04-25 09:40 | 55.37230 | -2.72026 | 15980 ft | 345 kts | 298° |
| 2026-04-25 09:40 | 55.38379 | -2.75709 | 15486 ft | 342 kts | 298° |
| 2026-04-25 09:40 | 55.39512 | -2.79362 | 14996 ft | 339 kts | 298° |
| 2026-04-25 09:40 | 55.40630 | -2.82986 | 14518 ft | 336 kts | 298° |
| 2026-04-25 09:41 | 55.41737 | -2.86592 | 14036 ft | 333 kts | 298° |
| 2026-04-25 09:41 | 55.42829 | -2.90168 | 13500 ft | 330 kts | 298° |
| 2026-04-25 09:41 | 55.43907 | -2.93709 | 13107 ft | 324 kts | 298° |
| 2026-04-25 09:41 | 55.44953 | -2.97152 | 12839 ft | 314 kts | 298° |
| 2026-04-25 09:42 | 55.45969 | -3.00504 | 12573 ft | 306 kts | 298° |
| 2026-04-25 09:42 | 55.46957 | -3.03768 | 12313 ft | 298 kts | 298° |
| 2026-04-25 09:42 | 55.47919 | -3.06952 | 12043 ft | 291 kts | 298° |
| 2026-04-25 09:42 | 55.48546 | -3.09027 | 11871 ft | 287 kts | 298° |
| 2026-04-25 09:43 | 55.49476 | -3.12112 | 11625 ft | 284 kts | 298° |
| 2026-04-25 09:43 | 55.50405 | -3.15194 | 11384 ft | 284 kts | 298° |
| 2026-04-25 09:43 | 55.51332 | -3.18272 | 11131 ft | 284 kts | 298° |
| 2026-04-25 09:43 | 55.52258 | -3.21351 | 10890 ft | 283 kts | 298° |
| 2026-04-25 09:44 | 55.53181 | -3.24415 | 10645 ft | 282 kts | 298° |
| 2026-04-25 09:44 | 55.54101 | -3.27470 | 10413 ft | 282 kts | 298° |
| 2026-04-25 09:44 | 55.55025 | -3.30536 | 10175 ft | 282 kts | 298° |
| 2026-04-25 09:44 | 55.55946 | -3.33591 | 9918 ft | 281 kts | 298° |
| 2026-04-25 09:45 | 55.56853 | -3.36602 | 9652 ft | 281 kts | 298° |
| 2026-04-25 09:45 | 55.57827 | -3.39595 | 9379 ft | 281 kts | 308° |
| 2026-04-25 09:45 | 55.59264 | -3.41909 | 9135 ft | 279 kts | 322° |
| 2026-04-25 09:45 | 55.60833 | -3.43928 | 8899 ft | 277 kts | 324° |
| 2026-04-25 09:46 | 55.62394 | -3.45885 | 8577 ft | 273 kts | 324° |
| 2026-04-25 09:46 | 55.63946 | -3.47825 | 8170 ft | 273 kts | 324° |
| 2026-04-25 09:46 | 55.65498 | -3.49755 | 7816 ft | 271 kts | 324° |
| 2026-04-25 09:46 | 55.67039 | -3.51669 | 7462 ft | 270 kts | 324° |
| 2026-04-25 09:47 | 55.68570 | -3.53569 | 7126 ft | 268 kts | 324° |
| 2026-04-25 09:47 | 55.70100 | -3.55465 | 6770 ft | 267 kts | 324° |
| 2026-04-25 09:47 | 55.71602 | -3.57323 | 6408 ft | 266 kts | 324° |
| 2026-04-25 09:47 | 55.73119 | -3.59200 | 6051 ft | 265 kts | 324° |
| 2026-04-25 09:48 | 55.74629 | -3.61069 | 5703 ft | 263 kts | 324° |
| 2026-04-25 09:48 | 55.76110 | -3.62895 | 5378 ft | 253 kts | 324° |
| 2026-04-25 09:48 | 55.77526 | -3.64635 | 5085 ft | 242 kts | 324° |
| 2026-04-25 09:48 | 55.78876 | -3.66294 | 4815 ft | 230 kts | 324° |
| 2026-04-25 09:49 | 55.80170 | -3.67878 | 4529 ft | 220 kts | 324° |
| 2026-04-25 09:49 | 55.81520 | -3.68972 | 4275 ft | 213 kts | 353° |
| 2026-04-25 09:49 | 55.82901 | -3.68366 | 4020 ft | 208 kts | 29° |
| 2026-04-25 09:49 | 55.84116 | -3.67063 | 3781 ft | 201 kts | 29° |
| 2026-04-25 09:50 | 55.85196 | -3.65575 | 3661 ft | 194 kts | 50° |
| 2026-04-25 09:50 | 55.86010 | -3.63624 | 3435 ft | 199 kts | 53° |
| 2026-04-25 09:50 | 55.86789 | -3.61572 | 3178 ft | 198 kts | 58° |
| 2026-04-25 09:50 | 55.87503 | -3.59495 | 2913 ft | 194 kts | 59° |
| 2026-04-25 09:51 | 55.88189 | -3.57452 | 2645 ft | 190 kts | 60° |
| 2026-04-25 09:51 | 55.88860 | -3.55452 | 2383 ft | 186 kts | 60° |
| 2026-04-25 09:51 | 55.89516 | -3.53501 | 2139 ft | 181 kts | 60° |
| 2026-04-25 09:51 | 55.90140 | -3.51648 | 1881 ft | 171 kts | 60° |
| 2026-04-25 09:52 | 55.90728 | -3.49900 | 1671 ft | 158 kts | 61° |
| 2026-04-25 09:52 | 55.91264 | -3.48314 | 1442 ft | 142 kts | 61° |
| 2026-04-25 09:52 | 55.91761 | -3.46835 | 1258 ft | 138 kts | 62° |
| 2026-04-25 09:52 | 55.92259 | -3.45354 | 1054 ft | 140 kts | 60° |
| 2026-04-25 09:53 | 55.92756 | -3.43886 | 848 ft | 136 kts | 61° |
| 2026-04-25 09:53 | 55.93239 | -3.42458 | 640 ft | 134 kts | 60° |
| 2026-04-25 09:53 | 55.93724 | -3.41033 | 424 ft | 134 kts | 60° |
| 2026-04-25 09:53 | 55.94208 | -3.39605 | 241 ft | 133 kts | 60° |
| 2026-04-25 09:54 | 55.94678 | -3.38206 | 113 ft | 126 kts | 60° |
| 2026-04-25 09:54 | 55.95037 | -3.37138 | 111 ft | 69 kts | 59° |
| 2026-04-25 09:54 | 55.95182 | -3.36714 | 113 ft | 24 kts | 58° |
| 2026-04-25 09:54 | 55.95257 | -3.36491 | 111 ft | 11 kts | 59° |
| 2026-04-25 09:55 | 55.95231 | -3.36392 | 112 ft | 7 kts | 149° |
| 2026-04-25 09:55 | 55.95209 | -3.36369 | 113 ft | 3 kts | 148° |
| 2026-04-25 09:55 | 55.95193 | -3.36351 | 114 ft | 3 kts | 148° |
| 2026-04-25 09:55 | 55.95177 | -3.36334 | 114 ft | 3 kts | 148° |
| 2026-04-25 09:56 | 55.95162 | -3.36317 | 114 ft | 2 kts | 148° |
| 2026-04-25 09:56 | 55.95147 | -3.36301 | 115 ft | 2 kts | 148° |
| 2026-04-25 09:56 | 55.95130 | -3.36304 | 113 ft | 4 kts | 214° |
| 2026-04-25 09:56 | 55.95104 | -3.36373 | 115 ft | 9 kts | 239° |
| 2026-04-25 09:57 | 55.95052 | -3.36389 | 113 ft | 8 kts | 154° |
| 2026-04-25 09:57 | 55.95006 | -3.36422 | 115 ft | 8 kts | 237° |
| 2026-04-25 09:57 | 55.94976 | -3.36507 | 115 ft | 8 kts | 239° |
| 2026-04-25 09:57 | 55.94949 | -3.36589 | 115 ft | 7 kts | 239° |
| 2026-04-25 09:58 | 55.94909 | -3.36579 | 112 ft | 7 kts | 148° |
| 2026-04-25 09:58 | 55.94885 | -3.36554 | 114 ft | 1 kts | 148° |
| 2026-04-25 09:58 | 55.94884 | -3.36552 | 115 ft | 0 kts | 148° |